sensor_id;sensor_type;location;lat;lon;timestamp;pressure;altitude;pressure_sealevel;temperature;humidity
80188;BME280;73735;52.134;5.436;2024-01-06T00:01:03;100553.13;;;5.77;85.75
80188;BME280;73735;52.134;5.436;2024-01-06T00:03:30;100553.22;;;5.75;85.55
80188;BME280;73735;52.134;5.436;2024-01-06T00:05:56;100556.59;;;5.77;85.09
80188;BME280;73735;52.134;5.436;2024-01-06T00:08:24;100556.69;;;5.76;85.51
80188;BME280;73735;52.134;5.436;2024-01-06T00:10:50;100558.56;;;5.74;84.83
80188;BME280;73735;52.134;5.436;2024-01-06T00:13:17;100560.41;;;5.72;84.95
80188;BME280;73735;52.134;5.436;2024-01-06T00:15:43;100569.38;;;5.67;84.50
80188;BME280;73735;52.134;5.436;2024-01-06T00:18:10;100570.94;;;5.70;85.15
80188;BME280;73735;52.134;5.436;2024-01-06T00:20:37;100590.25;;;5.67;84.61
80188;BME280;73735;52.134;5.436;2024-01-06T00:23:03;100582.81;;;5.61;84.73
80188;BME280;73735;52.134;5.436;2024-01-06T00:25:30;100587.47;;;5.56;85.31
80188;BME280;73735;52.134;5.436;2024-01-06T00:27:56;100587.47;;;5.56;85.31
80188;BME280;73735;52.134;5.436;2024-01-06T00:30:23;100593.34;;;5.60;85.06
80188;BME280;73735;52.134;5.436;2024-01-06T00:32:49;100595.97;;;5.60;85.24
80188;BME280;73735;52.134;5.436;2024-01-06T00:35:16;100592.59;;;5.58;85.07
80188;BME280;73735;52.134;5.436;2024-01-06T00:37:42;100597.25;;;5.53;84.15
80188;BME280;73735;52.134;5.436;2024-01-06T00:40:09;100592.22;;;5.50;84.40
80188;BME280;73735;52.134;5.436;2024-01-06T00:42:36;100597.44;;;5.50;83.89
80188;BME280;73735;52.134;5.436;2024-01-06T00:45:03;100595.97;;;5.46;84.15
80188;BME280;73735;52.134;5.436;2024-01-06T00:47:30;100603.06;;;5.44;84.55
80188;BME280;73735;52.134;5.436;2024-01-06T00:49:56;100609.22;;;5.43;84.60
80188;BME280;73735;52.134;5.436;2024-01-06T00:52:23;100608.94;;;5.47;84.73
80188;BME280;73735;52.134;5.436;2024-01-06T00:54:49;100601.94;;;5.48;84.45
80188;BME280;73735;52.134;5.436;2024-01-06T00:57:16;100602.88;;;5.47;84.94
80188;BME280;73735;52.134;5.436;2024-01-06T00:59:42;100606.78;;;5.40;84.86
80188;BME280;73735;52.134;5.436;2024-01-06T01:02:09;100600.25;;;5.32;85.17
80188;BME280;73735;52.134;5.436;2024-01-06T01:04:35;100613.22;;;5.34;85.49
80188;BME280;73735;52.134;5.436;2024-01-06T01:07:02;100619.66;;;5.28;85.22
80188;BME280;73735;52.134;5.436;2024-01-06T01:09:29;100625.22;;;5.22;85.62
80188;BME280;73735;52.134;5.436;2024-01-06T01:11:55;100626.13;;;5.21;85.53
80188;BME280;73735;52.134;5.436;2024-01-06T01:14:22;100627.72;;;5.24;85.86
80188;BME280;73735;52.134;5.436;2024-01-06T01:16:48;100632.13;;;5.23;85.73
80188;BME280;73735;52.134;5.436;2024-01-06T01:19:15;100634.81;;;5.22;85.40
80188;BME280;73735;52.134;5.436;2024-01-06T01:21:42;100647.03;;;5.21;86.05
80188;BME280;73735;52.134;5.436;2024-01-06T01:24:08;100647.94;;;5.20;85.82
80188;BME280;73735;52.134;5.436;2024-01-06T01:26:35;100656.63;;;5.21;86.03
80188;BME280;73735;52.134;5.436;2024-01-06T01:29:01;100649.00;;;5.18;85.41
80188;BME280;73735;52.134;5.436;2024-01-06T01:31:28;100655.75;;;5.06;84.78
80188;BME280;73735;52.134;5.436;2024-01-06T01:33:55;100654.28;;;5.02;85.13
80188;BME280;73735;52.134;5.436;2024-01-06T01:36:21;100662.09;;;5.02;85.08
80188;BME280;73735;52.134;5.436;2024-01-06T01:38:48;100663.19;;;4.98;85.03
80188;BME280;73735;52.134;5.436;2024-01-06T01:41:14;100672.19;;;4.92;85.03
80188;BME280;73735;52.134;5.436;2024-01-06T01:43:41;100681.78;;;4.92;85.03
80188;BME280;73735;52.134;5.436;2024-01-06T01:46:07;100682.72;;;4.91;84.87
80188;BME280;73735;52.134;5.436;2024-01-06T01:48:34;100687.00;;;4.92;85.34
80188;BME280;73735;52.134;5.436;2024-01-06T01:51:01;100693.44;;;4.86;85.30
80188;BME280;73735;52.134;5.436;2024-01-06T01:53:28;100699.66;;;4.84;85.32
80188;BME280;73735;52.134;5.436;2024-01-06T01:55:55;100702.28;;;4.84;85.12
80188;BME280;73735;52.134;5.436;2024-01-06T01:58:23;100697.97;;;4.83;85.29
80188;BME280;73735;52.134;5.436;2024-01-06T02:00:49;100704.19;;;4.80;85.15
80188;BME280;73735;52.134;5.436;2024-01-06T02:03:16;100703.38;;;4.80;85.18
80188;BME280;73735;52.134;5.436;2024-01-06T02:05:43;100707.41;;;4.85;85.23
80188;BME280;73735;52.134;5.436;2024-01-06T02:08:09;100710.25;;;4.81;85.39
80188;BME280;73735;52.134;5.436;2024-01-06T02:10:36;100716.91;;;4.86;85.51
80188;BME280;73735;52.134;5.436;2024-01-06T02:13:10;100710.84;;;4.86;85.08
80188;BME280;73735;52.134;5.436;2024-01-06T02:15:36;100714.22;;;4.88;84.96
80188;BME280;73735;52.134;5.436;2024-01-06T02:18:04;100711.69;;;4.86;84.99
80188;BME280;73735;52.134;5.436;2024-01-06T02:20:31;100719.44;;;4.88;84.59
80188;BME280;73735;52.134;5.436;2024-01-06T02:22:57;100717.38;;;4.93;84.64
80188;BME280;73735;52.134;5.436;2024-01-06T02:25:26;100719.75;;;4.97;84.87
80188;BME280;73735;52.134;5.436;2024-01-06T02:27:52;100724.13;;;4.97;84.52
80188;BME280;73735;52.134;5.436;2024-01-06T02:30:19;100725.03;;;4.96;84.67
80188;BME280;73735;52.134;5.436;2024-01-06T02:32:45;100725.97;;;4.95;84.24
80188;BME280;73735;52.134;5.436;2024-01-06T02:35:12;100730.50;;;4.91;84.50
80188;BME280;73735;52.134;5.436;2024-01-06T02:37:38;100733.72;;;4.96;84.66
80188;BME280;73735;52.134;5.436;2024-01-06T02:40:05;100743.47;;;4.93;84.72
80188;BME280;73735;52.134;5.436;2024-01-06T02:42:32;100742.63;;;4.92;84.75
80188;BME280;73735;52.134;5.436;2024-01-06T02:44:58;100756.59;;;4.91;84.62
80188;BME280;73735;52.134;5.436;2024-01-06T02:47:25;100751.28;;;4.93;84.63
80188;BME280;73735;52.134;5.436;2024-01-06T02:49:51;100754.50;;;4.98;85.06
80188;BME280;73735;52.134;5.436;2024-01-06T02:52:18;100753.56;;;4.99;85.33
80188;BME280;73735;52.134;5.436;2024-01-06T02:54:45;100757.88;;;5.00;84.85
80188;BME280;73735;52.134;5.436;2024-01-06T02:57:11;100761.66;;;4.94;85.33
80188;BME280;73735;52.134;5.436;2024-01-06T02:59:39;100766.03;;;4.94;85.29
80188;BME280;73735;52.134;5.436;2024-01-06T03:02:06;100763.19;;;4.83;85.14
80188;BME280;73735;52.134;5.436;2024-01-06T03:04:33;100766.63;;;4.83;85.33
80188;BME280;73735;52.134;5.436;2024-01-06T03:07:00;100770.09;;;4.84;85.26
80188;BME280;73735;52.134;5.436;2024-01-06T03:09:26;100765.88;;;4.81;85.23
80188;BME280;73735;52.134;5.436;2024-01-06T03:11:53;100771.09;;;4.81;85.36
80188;BME280;73735;52.134;5.436;2024-01-06T03:14:19;100769.31;;;4.82;85.65
80188;BME280;73735;52.134;5.436;2024-01-06T03:16:45;100772.84;;;4.81;85.54
80188;BME280;73735;52.134;5.436;2024-01-06T03:19:12;100776.22;;;4.83;85.27
80188;BME280;73735;52.134;5.436;2024-01-06T03:21:39;100775.63;;;4.78;85.36
80188;BME280;73735;52.134;5.436;2024-01-06T03:24:07;100786.50;;;4.70;85.11
80188;BME280;73735;52.134;5.436;2024-01-06T03:26:33;100794.25;;;4.72;85.33
80188;BME280;73735;52.134;5.436;2024-01-06T03:29:00;100791.78;;;4.69;85.11
80188;BME280;73735;52.134;5.436;2024-01-06T03:31:29;100794.16;;;4.73;85.63
80188;BME280;73735;52.134;5.436;2024-01-06T03:33:56;100801.22;;;4.71;85.42
80188;BME280;73735;52.134;5.436;2024-01-06T03:36:23;100804.81;;;4.69;85.66
80188;BME280;73735;52.134;5.436;2024-01-06T03:38:49;100816.88;;;4.71;85.44
80188;BME280;73735;52.134;5.436;2024-01-06T03:41:16;100819.56;;;4.70;85.15
80188;BME280;73735;52.134;5.436;2024-01-06T03:43:42;100827.53;;;4.67;85.65
80188;BME280;73735;52.134;5.436;2024-01-06T03:46:09;100821.31;;;4.69;85.54
80188;BME280;73735;52.134;5.436;2024-01-06T03:48:35;100828.28;;;4.69;85.76
80188;BME280;73735;52.134;5.436;2024-01-06T03:51:02;100836.19;;;4.67;85.33
80188;BME280;73735;52.134;5.436;2024-01-06T03:53:29;100829.28;;;4.66;85.32
80188;BME280;73735;52.134;5.436;2024-01-06T03:55:55;100832.66;;;4.68;85.13
80188;BME280;73735;52.134;5.436;2024-01-06T03:58:22;100841.56;;;4.64;85.31
80188;BME280;73735;52.134;5.436;2024-01-06T04:00:48;100845.44;;;4.57;85.31
80188;BME280;73735;52.134;5.436;2024-01-06T04:03:15;100849.13;;;4.53;85.79
80188;BME280;73735;52.134;5.436;2024-01-06T04:05:41;100849.91;;;4.55;85.24
80188;BME280;73735;52.134;5.436;2024-01-06T04:08:08;100854.41;;;4.51;85.57
80188;BME280;73735;52.134;5.436;2024-01-06T04:10:34;100858.94;;;4.48;85.39
80188;BME280;73735;52.134;5.436;2024-01-06T04:13:01;100860.72;;;4.47;85.93
80188;BME280;73735;52.134;5.436;2024-01-06T04:15:27;100857.34;;;4.45;85.47
80188;BME280;73735;52.134;5.436;2024-01-06T04:17:54;100857.19;;;4.48;85.56
80188;BME280;73735;52.134;5.436;2024-01-06T04:20:21;100855.34;;;4.50;85.61
80188;BME280;73735;52.134;5.436;2024-01-06T04:22:47;100850.22;;;4.49;85.59
80188;BME280;73735;52.134;5.436;2024-01-06T04:25:14;100858.09;;;4.47;85.13
80188;BME280;73735;52.134;5.436;2024-01-06T04:27:40;100859.94;;;4.45;85.18
80188;BME280;73735;52.134;5.436;2024-01-06T04:30:07;100856.69;;;4.42;85.05
80188;BME280;73735;52.134;5.436;2024-01-06T04:32:34;100863.50;;;4.44;85.16
80188;BME280;73735;52.134;5.436;2024-01-06T04:35:00;100859.13;;;4.45;85.05
80188;BME280;73735;52.134;5.436;2024-01-06T04:37:27;100863.25;;;4.49;85.15
80188;BME280;73735;52.134;5.436;2024-01-06T04:39:54;100868.53;;;4.47;84.99
80188;BME280;73735;52.134;5.436;2024-01-06T04:42:20;100872.97;;;4.45;85.21
80188;BME280;73735;52.134;5.436;2024-01-06T04:44:51;100877.03;;;4.51;85.06
80188;BME280;73735;52.134;5.436;2024-01-06T04:47:18;100877.19;;;4.48;84.89
80188;BME280;73735;52.134;5.436;2024-01-06T04:49:45;100874.16;;;4.40;85.12
80188;BME280;73735;52.134;5.436;2024-01-06T04:52:11;100880.53;;;4.34;85.15
80188;BME280;73735;52.134;5.436;2024-01-06T04:54:38;100881.69;;;4.29;84.64
80188;BME280;73735;52.134;5.436;2024-01-06T04:57:04;100886.22;;;4.25;84.71
80188;BME280;73735;52.134;5.436;2024-01-06T04:59:31;100880.78;;;4.30;84.87
80188;BME280;73735;52.134;5.436;2024-01-06T05:01:58;100881.84;;;4.25;84.78
80188;BME280;73735;52.134;5.436;2024-01-06T05:04:24;100892.34;;;4.24;84.65
80188;BME280;73735;52.134;5.436;2024-01-06T05:06:51;100890.50;;;4.26;84.62
80188;BME280;73735;52.134;5.436;2024-01-06T05:09:18;100900.78;;;4.29;84.59
80188;BME280;73735;52.134;5.436;2024-01-06T05:11:44;100897.56;;;4.24;84.42
80188;BME280;73735;52.134;5.436;2024-01-06T05:14:11;100903.84;;;4.20;84.10
80188;BME280;73735;52.134;5.436;2024-01-06T05:16:38;100907.38;;;4.19;84.53
80188;BME280;73735;52.134;5.436;2024-01-06T05:19:04;100910.75;;;4.21;84.21
80188;BME280;73735;52.134;5.436;2024-01-06T05:21:31;100911.66;;;4.20;84.39
80188;BME280;73735;52.134;5.436;2024-01-06T05:23:59;100925.75;;;4.16;84.50
80188;BME280;73735;52.134;5.436;2024-01-06T05:26:25;100923.31;;;4.13;84.43
80188;BME280;73735;52.134;5.436;2024-01-06T05:28:52;100926.69;;;4.15;84.85
80188;BME280;73735;52.134;5.436;2024-01-06T05:31:18;100933.81;;;4.11;84.80
80188;BME280;73735;52.134;5.436;2024-01-06T05:33:45;100933.91;;;4.10;84.89
80188;BME280;73735;52.134;5.436;2024-01-06T05:36:11;100943.63;;;4.06;84.52
80188;BME280;73735;52.134;5.436;2024-01-06T05:38:38;100937.97;;;3.98;84.79
80188;BME280;73735;52.134;5.436;2024-01-06T05:41:04;100939.94;;;3.93;85.13
80188;BME280;73735;52.134;5.436;2024-01-06T05:43:31;100943.38;;;3.94;85.01
80188;BME280;73735;52.134;5.436;2024-01-06T05:45:57;100941.56;;;3.96;85.65
80188;BME280;73735;52.134;5.436;2024-01-06T05:48:24;100938.03;;;3.97;85.30
80188;BME280;73735;52.134;5.436;2024-01-06T05:50:50;100944.44;;;3.89;85.37
80188;BME280;73735;52.134;5.436;2024-01-06T05:53:17;100946.28;;;3.87;85.72
80188;BME280;73735;52.134;5.436;2024-01-06T05:55:44;100948.94;;;3.86;85.26
80188;BME280;73735;52.134;5.436;2024-01-06T05:58:11;100955.19;;;3.83;85.29
80188;BME280;73735;52.134;5.436;2024-01-06T06:00:38;100948.41;;;3.79;85.32
80188;BME280;73735;52.134;5.436;2024-01-06T06:03:05;100953.91;;;3.73;85.91
80188;BME280;73735;52.134;5.436;2024-01-06T06:05:31;100962.50;;;3.75;85.75
80188;BME280;73735;52.134;5.436;2024-01-06T06:07:58;100974.75;;;3.73;85.53
80188;BME280;73735;52.134;5.436;2024-01-06T06:10:24;100974.97;;;3.69;86.03
80188;BME280;73735;52.134;5.436;2024-01-06T06:12:56;100982.94;;;3.66;86.40
80188;BME280;73735;52.134;5.436;2024-01-06T06:15:23;100982.16;;;3.64;85.96
80188;BME280;73735;52.134;5.436;2024-01-06T06:17:49;100979.63;;;3.62;86.34
80188;BME280;73735;52.134;5.436;2024-01-06T06:20:16;100993.47;;;3.63;86.43
80188;BME280;73735;52.134;5.436;2024-01-06T06:22:42;100992.56;;;3.64;86.37
80188;BME280;73735;52.134;5.436;2024-01-06T06:25:09;101002.19;;;3.62;86.46
80188;BME280;73735;52.134;5.436;2024-01-06T06:27:36;100996.94;;;3.63;86.42
80188;BME280;73735;52.134;5.436;2024-01-06T06:30:03;101009.16;;;3.61;86.38
80188;BME280;73735;52.134;5.436;2024-01-06T06:32:30;101013.53;;;3.61;86.17
80188;BME280;73735;52.134;5.436;2024-01-06T06:34:56;101013.47;;;3.62;86.68
80188;BME280;73735;52.134;5.436;2024-01-06T06:37:23;101017.63;;;3.66;86.41
80188;BME280;73735;52.134;5.436;2024-01-06T06:39:49;101021.19;;;3.64;86.41
80188;BME280;73735;52.134;5.436;2024-01-06T06:42:16;101025.63;;;3.62;86.20
80188;BME280;73735;52.134;5.436;2024-01-06T06:44:43;101036.13;;;3.60;86.58
80188;BME280;73735;52.134;5.436;2024-01-06T06:47:09;101035.41;;;3.57;86.56
80188;BME280;73735;52.134;5.436;2024-01-06T06:49:35;101044.06;;;3.57;86.47
80188;BME280;73735;52.134;5.436;2024-01-06T06:52:02;101055.25;;;3.59;86.52
80188;BME280;73735;52.134;5.436;2024-01-06T06:54:30;101048.59;;;3.53;86.23
80188;BME280;73735;52.134;5.436;2024-01-06T06:56:56;101046.03;;;3.52;86.81
80188;BME280;73735;52.134;5.436;2024-01-06T06:59:23;101046.03;;;3.52;86.61
80188;BME280;73735;52.134;5.436;2024-01-06T07:01:49;101053.78;;;3.53;86.56
80188;BME280;73735;52.134;5.436;2024-01-06T07:04:15;101064.19;;;3.53;86.82
80188;BME280;73735;52.134;5.436;2024-01-06T07:06:42;101064.13;;;3.55;86.35
80188;BME280;73735;52.134;5.436;2024-01-06T07:09:09;101079.66;;;3.57;86.25
80188;BME280;73735;52.134;5.436;2024-01-06T07:11:35;101078.97;;;3.53;85.75
80188;BME280;73735;52.134;5.436;2024-01-06T07:14:01;101068.63;;;3.51;85.81
80188;BME280;73735;52.134;5.436;2024-01-06T07:16:28;101083.41;;;3.51;85.43
80188;BME280;73735;52.134;5.436;2024-01-06T07:18:54;101088.47;;;3.54;85.26
80188;BME280;73735;52.134;5.436;2024-01-06T07:21:21;101083.09;;;3.57;85.35
80188;BME280;73735;52.134;5.436;2024-01-06T07:23:49;101101.63;;;3.51;84.96
80188;BME280;73735;52.134;5.436;2024-01-06T07:26:16;101102.59;;;3.48;84.90
80188;BME280;73735;52.134;5.436;2024-01-06T07:28:42;101097.13;;;3.54;84.81
80188;BME280;73735;52.134;5.436;2024-01-06T07:31:09;101098.72;;;3.57;84.73
80188;BME280;73735;52.134;5.436;2024-01-06T07:33:35;101098.16;;;3.50;84.47
80188;BME280;73735;52.134;5.436;2024-01-06T07:36:02;101097.31;;;3.50;84.26
80188;BME280;73735;52.134;5.436;2024-01-06T07:38:29;101109.44;;;3.51;84.39
80188;BME280;73735;52.134;5.436;2024-01-06T07:40:57;101109.50;;;3.49;84.54
80188;BME280;73735;52.134;5.436;2024-01-06T07:43:23;101123.16;;;3.54;84.78
80188;BME280;73735;52.134;5.436;2024-01-06T07:45:50;101125.75;;;3.54;84.27
80188;BME280;73735;52.134;5.436;2024-01-06T07:48:17;101129.88;;;3.59;84.53
80188;BME280;73735;52.134;5.436;2024-01-06T07:50:44;101130.63;;;3.81;83.93
80188;BME280;73735;52.134;5.436;2024-01-06T07:53:11;101139.84;;;3.69;83.94
80188;BME280;73735;52.134;5.436;2024-01-06T07:55:40;101143.56;;;3.64;83.74
80188;BME280;73735;52.134;5.436;2024-01-06T07:58:06;101138.28;;;3.65;83.99
80188;BME280;73735;52.134;5.436;2024-01-06T08:00:33;101143.44;;;3.67;83.92
80188;BME280;73735;52.134;5.436;2024-01-06T08:03:00;101153.00;;;3.66;83.76
80188;BME280;73735;52.134;5.436;2024-01-06T08:05:26;101159.25;;;3.62;83.65
80188;BME280;73735;52.134;5.436;2024-01-06T08:07:53;101159.38;;;3.59;83.83
80188;BME280;73735;52.134;5.436;2024-01-06T08:10:19;101166.63;;;3.52;83.58
80188;BME280;73735;52.134;5.436;2024-01-06T08:12:47;101166.56;;;3.54;83.75
80188;BME280;73735;52.134;5.436;2024-01-06T08:15:14;101170.84;;;3.55;83.50
80188;BME280;73735;52.134;5.436;2024-01-06T08:17:41;101179.75;;;3.49;83.47
80188;BME280;73735;52.134;5.436;2024-01-06T08:20:08;101175.34;;;3.51;83.70
80188;BME280;73735;52.134;5.436;2024-01-06T08:22:34;101184.91;;;3.51;83.56
80188;BME280;73735;52.134;5.436;2024-01-06T08:25:01;101186.47;;;3.55;83.63
80188;BME280;73735;52.134;5.436;2024-01-06T08:27:28;101182.13;;;3.56;83.57
80188;BME280;73735;52.134;5.436;2024-01-06T08:29:55;101184.63;;;3.57;83.70
80188;BME280;73735;52.134;5.436;2024-01-06T08:32:22;101182.69;;;3.62;83.48
80188;BME280;73735;52.134;5.436;2024-01-06T08:34:49;101188.59;;;3.66;83.48
80188;BME280;73735;52.134;5.436;2024-01-06T08:37:16;101195.75;;;3.61;83.19
80188;BME280;73735;52.134;5.436;2024-01-06T08:39:42;101203.63;;;3.59;82.69
80188;BME280;73735;52.134;5.436;2024-01-06T08:42:08;101206.28;;;3.58;83.15
80188;BME280;73735;52.134;5.436;2024-01-06T08:44:35;101205.53;;;3.56;82.88
80188;BME280;73735;52.134;5.436;2024-01-06T08:47:01;101211.66;;;3.54;83.19
80188;BME280;73735;52.134;5.436;2024-01-06T08:49:29;101214.75;;;3.63;82.90
80188;BME280;73735;52.134;5.436;2024-01-06T08:51:56;101225.09;;;3.64;83.04
80188;BME280;73735;52.134;5.436;2024-01-06T08:54:22;101230.19;;;3.67;83.14
80188;BME280;73735;52.134;5.436;2024-01-06T08:56:49;101234.50;;;3.68;82.88
80188;BME280;73735;52.134;5.436;2024-01-06T08:59:15;101233.63;;;3.68;82.78
80188;BME280;73735;52.134;5.436;2024-01-06T09:01:41;101241.50;;;3.66;83.06
80188;BME280;73735;52.134;5.436;2024-01-06T09:04:09;101241.63;;;3.63;82.53
80188;BME280;73735;52.134;5.436;2024-01-06T09:06:38;101248.53;;;3.64;82.73
80188;BME280;73735;52.134;5.436;2024-01-06T09:09:04;101256.28;;;3.66;82.44
80188;BME280;73735;52.134;5.436;2024-01-06T09:11:32;101256.41;;;3.63;82.66
80188;BME280;73735;52.134;5.436;2024-01-06T09:14:00;101259.88;;;3.63;82.42
80188;BME280;73735;52.134;5.436;2024-01-06T09:16:27;101256.41;;;3.63;82.84
80188;BME280;73735;52.134;5.436;2024-01-06T09:18:53;101265.00;;;3.65;82.58
80188;BME280;73735;52.134;5.436;2024-01-06T09:21:20;101259.00;;;3.63;82.70
80188;BME280;73735;52.134;5.436;2024-01-06T09:23:46;101271.06;;;3.65;82.66
80188;BME280;73735;52.134;5.436;2024-01-06T09:26:13;101267.44;;;3.69;82.28
80188;BME280;73735;52.134;5.436;2024-01-06T09:28:39;101284.75;;;3.70;82.36
80188;BME280;73735;52.134;5.436;2024-01-06T09:31:06;101279.53;;;3.70;82.21
80188;BME280;73735;52.134;5.436;2024-01-06T09:33:32;101284.59;;;3.73;82.50
80188;BME280;73735;52.134;5.436;2024-01-06T09:36:01;101292.41;;;3.73;82.04
80188;BME280;73735;52.134;5.436;2024-01-06T09:38:28;101292.34;;;3.75;82.53
80188;BME280;73735;52.134;5.436;2024-01-06T09:40:55;101298.38;;;3.75;82.50
80188;BME280;73735;52.134;5.436;2024-01-06T09:43:22;101300.09;;;3.76;82.25
80188;BME280;73735;52.134;5.436;2024-01-06T09:45:56;101300.75;;;3.81;82.29
80188;BME280;73735;52.134;5.436;2024-01-06T09:48:29;101311.03;;;3.84;82.42
80188;BME280;73735;52.134;5.436;2024-01-06T09:50:56;101315.34;;;3.85;82.24
80188;BME280;73735;52.134;5.436;2024-01-06T09:53:33;101318.00;;;3.84;81.56
80188;BME280;73735;52.134;5.436;2024-01-06T09:56:00;101322.16;;;3.88;81.70
80188;BME280;73735;52.134;5.436;2024-01-06T09:58:27;101325.59;;;3.88;81.67
80188;BME280;73735;52.134;5.436;2024-01-06T10:00:56;101321.34;;;3.86;81.23
80188;BME280;73735;52.134;5.436;2024-01-06T10:03:23;101327.69;;;3.80;80.96
80188;BME280;73735;52.134;5.436;2024-01-06T10:05:50;101322.66;;;3.76;80.94
80188;BME280;73735;52.134;5.436;2024-01-06T10:08:18;101333.69;;;3.82;81.62
80188;BME280;73735;52.134;5.436;2024-01-06T10:10:45;101330.56;;;3.95;81.20
80188;BME280;73735;52.134;5.436;2024-01-06T10:13:16;101342.97;;;3.88;80.76
80188;BME280;73735;52.134;5.436;2024-01-06T10:15:43;101347.56;;;3.83;80.68
80188;BME280;73735;52.134;5.436;2024-01-06T10:18:09;101349.38;;;3.81;81.12
80188;BME280;73735;52.134;5.436;2024-01-06T10:20:36;101353.69;;;3.82;80.86
80188;BME280;73735;52.134;5.436;2024-01-06T10:23:06;101351.06;;;3.82;81.01
80188;BME280;73735;52.134;5.436;2024-01-06T10:25:32;101357.97;;;3.83;80.95
80188;BME280;73735;52.134;5.436;2024-01-06T10:28:00;101358.03;;;3.81;81.16
80188;BME280;73735;52.134;5.436;2024-01-06T10:30:28;101369.09;;;3.86;81.30
80188;BME280;73735;52.134;5.436;2024-01-06T10:32:55;101363.69;;;3.91;81.29
80188;BME280;73735;52.134;5.436;2024-01-06T10:35:23;101376.00;;;3.87;80.96
80188;BME280;73735;52.134;5.436;2024-01-06T10:37:51;101378.59;;;3.87;80.95
80188;BME280;73735;52.134;5.436;2024-01-06T10:40:18;101375.09;;;3.88;80.99
80188;BME280;73735;52.134;5.436;2024-01-06T10:42:45;101372.69;;;3.84;80.68
80188;BME280;73735;52.134;5.436;2024-01-06T10:45:13;101377.84;;;3.85;81.01
80188;BME280;73735;52.134;5.436;2024-01-06T10:47:41;101375.28;;;3.84;80.88
80188;BME280;73735;52.134;5.436;2024-01-06T10:50:11;101380.44;;;3.85;80.99
80188;BME280;73735;52.134;5.436;2024-01-06T10:52:40;101384.03;;;3.83;80.78
80188;BME280;73735;52.134;5.436;2024-01-06T10:55:08;101382.38;;;3.80;80.83
80188;BME280;73735;52.134;5.436;2024-01-06T10:57:37;101376.44;;;3.77;80.79
80188;BME280;73735;52.134;5.436;2024-01-06T11:00:04;101379.78;;;3.80;81.30
80188;BME280;73735;52.134;5.436;2024-01-06T11:02:31;101385.84;;;3.81;81.35
80188;BME280;73735;52.134;5.436;2024-01-06T11:04:59;101381.47;;;3.81;81.01
80188;BME280;73735;52.134;5.436;2024-01-06T11:07:26;101390.00;;;3.85;80.98
80188;BME280;73735;52.134;5.436;2024-01-06T11:10:12;101393.19;;;3.92;81.07
80188;BME280;73735;52.134;5.436;2024-01-06T11:12:42;101388.78;;;3.94;81.20
80188;BME280;73735;52.134;5.436;2024-01-06T11:15:09;101397.25;;;3.99;80.81
80188;BME280;73735;52.134;5.436;2024-01-06T11:17:55;101403.16;;;4.02;80.77
80188;BME280;73735;52.134;5.436;2024-01-06T11:20:25;101401.41;;;4.03;80.78
80188;BME280;73735;52.134;5.436;2024-01-06T11:22:53;101406.47;;;4.06;80.66
80188;BME280;73735;52.134;5.436;2024-01-06T11:25:21;101403.22;;;4.01;80.29
80188;BME280;73735;52.134;5.436;2024-01-06T11:27:49;101394.78;;;3.96;79.88
80188;BME280;73735;52.134;5.436;2024-01-06T11:30:24;101401.69;;;3.97;79.95
80188;BME280;73735;52.134;5.436;2024-01-06T11:32:52;101405.91;;;3.99;79.56
80188;BME280;73735;52.134;5.436;2024-01-06T11:35:21;101401.34;;;4.04;79.66
80188;BME280;73735;52.134;5.436;2024-01-06T11:37:52;101399.69;;;4.02;79.11
80188;BME280;73735;52.134;5.436;2024-01-06T11:42:58;101404.97;;;4.20;80.41
80188;BME280;73735;52.134;5.436;2024-01-06T11:45:25;101405.47;;;4.30;78.36
80188;BME280;73735;52.134;5.436;2024-01-06T11:48:03;101403.75;;;4.09;78.66
80188;BME280;73735;52.134;5.436;2024-01-06T11:50:35;101403.09;;;4.04;78.32
80188;BME280;73735;52.134;5.436;2024-01-06T11:53:03;101397.19;;;4.00;78.94
80188;BME280;73735;52.134;5.436;2024-01-06T11:55:30;101403.81;;;4.07;78.59
80188;BME280;73735;52.134;5.436;2024-01-06T11:58:00;101400.47;;;4.04;79.02
80188;BME280;73735;52.134;5.436;2024-01-06T12:00:29;101404.16;;;4.00;78.71
80188;BME280;73735;52.134;5.436;2024-01-06T12:02:57;101406.09;;;3.95;78.95
80188;BME280;73735;52.134;5.436;2024-01-06T12:05:24;101408.81;;;3.92;79.13
80188;BME280;73735;52.134;5.436;2024-01-06T12:08:01;101399.13;;;3.95;79.21
80188;BME280;73735;52.134;5.436;2024-01-06T12:10:28;101406.81;;;3.98;79.33
80188;BME280;73735;52.134;5.436;2024-01-06T12:13:00;101400.75;;;3.98;79.29
80188;BME280;73735;52.134;5.436;2024-01-06T12:15:29;101407.84;;;3.94;79.55
80188;BME280;73735;52.134;5.436;2024-01-06T12:17:56;101408.81;;;3.92;79.70
80188;BME280;73735;52.134;5.436;2024-01-06T12:20:23;101413.78;;;3.98;79.95
80188;BME280;73735;52.134;5.436;2024-01-06T12:22:51;101414.81;;;3.94;79.27
80188;BME280;73735;52.134;5.436;2024-01-06T12:25:21;101416.31;;;4.40;79.77
80188;BME280;73735;52.134;5.436;2024-01-06T12:27:48;101422.00;;;4.68;77.92
80188;BME280;73735;52.134;5.436;2024-01-06T12:30:19;101417.41;;;4.34;78.34
80188;BME280;73735;52.134;5.436;2024-01-06T12:32:47;101410.56;;;4.52;78.28
80188;BME280;73735;52.134;5.436;2024-01-06T12:35:17;101418.34;;;4.33;78.30
80188;BME280;73735;52.134;5.436;2024-01-06T12:37:44;101420.50;;;4.23;78.46
80188;BME280;73735;52.134;5.436;2024-01-06T12:40:11;101428.63;;;4.16;78.73
80188;BME280;73735;52.134;5.436;2024-01-06T12:42:39;101423.69;;;4.10;78.96
80188;BME280;73735;52.134;5.436;2024-01-06T12:45:06;101425.75;;;4.02;79.12
80188;BME280;73735;52.134;5.436;2024-01-06T12:47:33;101425.91;;;3.99;79.36
80188;BME280;73735;52.134;5.436;2024-01-06T12:50:00;101426.03;;;3.96;79.64
80188;BME280;73735;52.134;5.436;2024-01-06T12:52:27;101422.50;;;3.97;79.30
80188;BME280;73735;52.134;5.436;2024-01-06T12:54:53;101422.50;;;3.97;79.21
80188;BME280;73735;52.134;5.436;2024-01-06T12:57:20;101423.34;;;3.97;79.16
80188;BME280;73735;52.134;5.436;2024-01-06T12:59:47;101429.25;;;4.01;79.15
80188;BME280;73735;52.134;5.436;2024-01-06T13:02:13;101428.56;;;3.97;79.18